createdAt,value
2019-01-13T00:08:32.708Z,961.7
2019-01-13T00:18:36.146Z,961.6
2019-01-13T00:28:39.574Z,961.6
2019-01-13T00:38:43.987Z,961.9
2019-01-13T00:48:47.411Z,961.4
2019-01-13T00:58:50.844Z,961.8
2019-01-13T01:08:54.282Z,961.6
2019-01-13T01:18:57.684Z,961.7
2019-01-13T01:29:01.115Z,961.8
2019-01-13T01:39:04.541Z,961.2
2019-01-13T01:49:07.972Z,960.8
2019-01-13T01:59:11.379Z,960.6
2019-01-13T02:09:14.770Z,961
2019-01-13T02:19:18.191Z,960.5
2019-01-13T02:29:21.584Z,960.8
2019-01-13T02:39:25.013Z,960.6
2019-01-13T02:49:28.413Z,960.3
2019-01-13T02:59:31.846Z,960
2019-01-13T03:09:36.288Z,960.1
2019-01-13T03:19:39.792Z,959.8
2019-01-13T03:29:43.221Z,959.8
2019-01-13T03:39:46.668Z,959.7
2019-01-13T03:49:50.055Z,959.8
2019-01-13T03:59:53.470Z,960.2
2019-01-13T04:09:56.913Z,959.3
2019-01-13T04:20:00.450Z,959.7
2019-01-13T04:30:03.862Z,959.3
2019-01-13T04:40:07.277Z,959.1
2019-01-13T04:50:10.785Z,959.3
2019-01-13T05:00:14.220Z,958.8
2019-01-13T05:10:17.636Z,959
2019-01-13T05:20:21.083Z,959.2
2019-01-13T05:30:24.476Z,959.1
2019-01-13T05:40:27.922Z,959.3
2019-01-13T05:50:31.345Z,959.1
2019-01-13T06:00:34.771Z,959.2
2019-01-13T06:10:38.193Z,959.1
2019-01-13T06:20:41.624Z,959.1
2019-01-13T06:30:45.062Z,959
2019-01-13T06:40:48.463Z,959.1
2019-01-13T06:50:51.885Z,959
2019-01-13T07:00:55.300Z,958.9
2019-01-13T07:10:58.703Z,959.1
2019-01-13T07:21:02.107Z,958.8
2019-01-13T07:31:05.530Z,959
2019-01-13T07:41:08.964Z,958.7
2019-01-13T07:51:12.405Z,958.9
2019-01-13T08:01:15.780Z,958.8
2019-01-13T08:11:19.187Z,958.9
2019-01-13T08:21:22.606Z,958.5
2019-01-13T08:31:26.023Z,958.4
2019-01-13T08:41:29.412Z,958
2019-01-13T08:51:32.838Z,958.5
2019-01-13T09:01:36.252Z,958.6
2019-01-13T09:11:39.651Z,958.5
2019-01-13T09:21:43.088Z,958.2
2019-01-13T09:31:46.521Z,958.4
2019-01-13T09:41:49.936Z,958.1
2019-01-13T09:51:53.332Z,958
2019-01-13T10:01:56.768Z,957.7
2019-01-13T10:12:00.189Z,957.7
2019-01-13T10:22:03.635Z,957.6
2019-01-13T10:32:08.049Z,957.5
2019-01-13T10:42:11.532Z,957.5
2019-01-13T10:52:14.962Z,957.4
2019-01-13T11:02:18.397Z,956.7
2019-01-13T11:12:21.851Z,956.8
2019-01-13T11:22:25.280Z,956.5
2019-01-13T11:32:28.673Z,956.4
2019-01-13T11:42:32.087Z,956.1
2019-01-13T11:52:35.533Z,956.5
2019-01-13T12:02:39.003Z,956.1
2019-01-13T12:12:42.391Z,956
2019-01-13T12:22:45.809Z,955.3
2019-01-13T12:32:49.248Z,955.8
2019-01-13T12:42:52.720Z,955.2
2019-01-13T12:52:56.141Z,955.2
2019-01-13T13:02:59.591Z,954.9
2019-01-13T13:13:02.987Z,954.7
2019-01-13T13:23:06.397Z,954.8
2019-01-13T13:33:09.836Z,954.6
2019-01-13T13:43:13.272Z,954.3
2019-01-13T13:53:16.672Z,953.9
2019-01-13T14:03:20.149Z,954.1
2019-01-13T14:13:23.644Z,954.2
2019-01-13T14:23:27.388Z,961.2
2019-01-13T14:33:30.804Z,953.8
2019-01-13T14:43:34.222Z,953.2
2019-01-13T14:53:37.641Z,953.2
2019-01-13T15:03:41.076Z,960.5
2019-01-13T15:13:44.485Z,960.5
2019-01-13T15:23:47.919Z,959.9
2019-01-13T15:33:51.365Z,959.7
2019-01-13T15:43:54.784Z,959.7
2019-01-13T15:53:58.182Z,959.2
2019-01-13T16:04:01.587Z,959.4
2019-01-13T16:14:05.010Z,959.2
2019-01-13T16:24:08.390Z,958.9
2019-01-13T16:34:11.809Z,958.8
2019-01-13T16:44:15.284Z,958.2
2019-01-13T16:54:18.710Z,958
2019-01-13T17:04:29.378Z,958
2019-01-13T17:14:32.816Z,957.9
2019-01-13T17:24:36.217Z,957.6
2019-01-13T17:34:39.604Z,957.3
2019-01-13T17:44:43.045Z,957.1
2019-01-13T17:54:46.483Z,957.5
2019-01-13T18:04:49.885Z,956.7
2019-01-13T18:14:53.295Z,956.1
2019-01-13T18:24:56.719Z,956.5
2019-01-13T18:35:00.161Z,956.3
2019-01-13T18:45:03.653Z,955.9
2019-01-13T18:55:07.046Z,955.8
2019-01-13T19:05:10.486Z,955.7
2019-01-13T19:15:13.908Z,955.4
2019-01-13T19:25:17.319Z,954.9
2019-01-13T19:35:20.727Z,954.9
2019-01-13T19:45:24.136Z,955.2
2019-01-13T19:55:27.552Z,955.3
2019-01-13T20:05:31.358Z,955.3
2019-01-13T20:15:34.868Z,955.2
2019-01-13T20:25:38.279Z,954.9
2019-01-13T20:35:41.690Z,954.9
2019-01-13T20:45:45.115Z,954.6
2019-01-13T20:55:48.509Z,954
2019-01-13T21:05:51.921Z,953.9
2019-01-13T21:15:55.367Z,953.8
2019-01-13T21:25:58.824Z,953.1
2019-01-13T21:36:02.228Z,953.2
2019-01-13T21:46:05.646Z,952.6
2019-01-13T21:56:09.068Z,952.8
2019-01-13T22:06:12.513Z,953.7
2019-01-13T22:16:15.962Z,953.7
2019-01-13T22:26:19.366Z,953.6
2019-01-13T22:36:22.765Z,953.6
2019-01-13T22:46:26.196Z,953.6
2019-01-13T22:56:29.578Z,953.9
2019-01-13T23:06:32.980Z,953.9
2019-01-13T23:16:36.406Z,953.9
2019-01-13T23:26:39.834Z,954
2019-01-13T23:36:43.245Z,953.9
2019-01-13T23:46:46.646Z,953.8
2019-01-13T23:56:50.053Z,953.4
